Portada
METAR-TAF:

METAR-TAF

Aeroports :

Lo Luc, França

latitud: 43-23N, longitud: 006-23E, altitud: 80 m

Observació

L'informe es va fer fa 33 minuts, a les 15:30 UTC
Vent 6 kt del Oest, variant entre Sud-Oest i Nord-Oest
Temperatura 14°C
Humitat 31%
Pressió 1018 hPa
Visibilitat 10 km o més

METAR: LFMC 101530Z AUTO 27006KT 230V310 9999 ////// 14/M03 Q1018

Hora: 17:03 (16:03 UTC)


TAF: manca

Observacions i pronòstics meteorològics de més de 4000 aeroports (METAR i TAF).

Les estacions disponibles són els punts grocs i vermells al mapa.

Posi el ratolí al punt desitjat per veure el nom de l'estació.

Feu clic per veure les observacions i els pronòstics meteorològics.

Per canviar el mapa: feu clic els botons verds amb una creu de color negre per apropar; al botó verd amb un guió per allunyar la imatge; o en les fletxes verdes per a mapes adjacents.


METAR-TAF: